Time;durP1;ratioP1;P1;durP2;ratioP2;P2;SDS_P1;SDS_P2;PMS_P1;PMS_P2;Temp;Humidity;BMP_temperature;BMP_pressure;BME280_temperature;BME280_humidity;BME280_pressure;Samples;Min_cycle;Max_cycle;Signal;HPM_P1;HPM_P2
2022/12/24 15:43:35;;;;;;;62.33;37.88;;;;;;;7.96;100.00;98583.94;5004844;28;20128;-59
2022/12/24 15:46:01;;;;;;;66.47;39.30;;;;;;;7.95;100.00;98586.63;4999461;28;20515;-60
2022/12/24 15:48:28;;;;;;;64.72;40.20;;;;;;;7.95;100.00;98590.03;5013039;28;20027;-62
2022/12/24 15:50:58;;;;;;;70.07;41.05;;;;;;;7.91;100.00;98577.50;5040498;28;20152;-60
2022/12/24 15:53:40;;;;;;;78.10;41.78;;;;;;;7.99;100.00;98590.59;5009131;28;20476;-60
2022/12/24 15:56:12;;;;;;;69.30;41.58;;;;;;;7.95;100.00;98595.22;5009479;28;20068;-60
2022/12/24 15:58:44;;;;;;;73.00;41.60;;;;;;;7.93;100.00;98583.38;5000773;28;20790;-63
2022/12/24 16:01:14;;;;;;;73.63;43.35;;;;;;;7.95;100.00;98584.88;5004897;28;20087;-61
2022/12/24 16:04:16;;;;;;;75.70;42.15;;;;;;;7.92;100.00;98587.69;5026545;28;20503;-65
2022/12/24 16:07:05;;;;;;;67.43;40.80;;;;;;;7.82;100.00;98585.06;5005648;28;20822;-65
2022/12/24 16:09:33;;;;;;;74.82;42.42;;;;;;;7.87;100.00;98608.00;5035333;28;20029;-63
2022/12/24 16:11:59;;;;;;;81.03;46.13;;;;;;;7.87;100.00;98593.28;5018646;28;20041;-63
2022/12/24 16:14:25;;;;;;;79.35;42.47;;;;;;;7.81;100.00;98587.78;5035643;28;20021;-62
2022/12/24 16:16:53;;;;;;;77.28;42.05;;;;;;;7.83;100.00;98606.59;5039781;28;20187;-63
2022/12/24 16:19:30;;;;;;;77.30;44.03;;;;;;;7.86;100.00;98596.81;5037122;28;20026;-64
2022/12/24 16:21:57;;;;;;;77.65;44.20;;;;;;;7.87;100.00;98595.06;5000467;28;20037;-62
2022/12/24 16:24:26;;;;;;;70.03;41.97;;;;;;;7.87;100.00;98610.59;5006992;28;20029;-63
2022/12/24 16:26:52;;;;;;;75.57;43.40;;;;;;;7.87;100.00;98614.00;5009283;28;20084;-62
2022/12/24 16:29:26;;;;;;;76.78;42.85;;;;;;;7.79;100.00;98618.16;5025259;28;20038;-64
2022/12/24 16:31:57;;;;;;;78.85;43.65;;;;;;;7.81;100.00;98616.25;4986879;28;20110;-63
2022/12/24 16:34:26;;;;;;;77.47;43.33;;;;;;;7.83;100.00;98619.53;4987268;28;20029;-63
2022/12/24 16:36:52;;;;;;;80.05;44.22;;;;;;;7.80;100.00;98619.81;5000513;28;20026;-64
2022/12/24 16:39:23;;;;;;;87.05;45.03;;;;;;;7.83;100.00;98635.06;5008507;28;20511;-64
2022/12/24 16:44:35;;;;;;;85.20;44.65;;;;;;;7.50;100.00;98600.66;5021148;28;20551;-62
2022/12/24 16:47:00;;;;;;;83.30;45.60;;;;;;;7.75;100.00;98632.31;5012697;28;20036;-63
2022/12/24 16:49:26;;;;;;;85.38;46.55;;;;;;;7.69;100.00;98634.44;4996126;28;20060;-63
2022/12/24 16:51:52;;;;;;;83.35;45.58;;;;;;;7.75;100.00;98646.06;5021734;28;20037;-63
2022/12/24 16:54:17;;;;;;;97.60;49.47;;;;;;;7.74;100.00;98649.59;5001613;28;20496;-63
2022/12/24 16:56:43;;;;;;;89.45;46.67;;;;;;;7.71;100.00;98642.09;4997999;28;20051;-64
2022/12/24 16:59:20;;;;;;;94.32;48.50;;;;;;;7.75;100.00;98648.66;5014079;28;20752;-62
2022/12/24 17:01:47;;;;;;;92.45;47.47;;;;;;;7.76;100.00;98655.47;5000636;28;20033;-63
2022/12/24 17:04:13;;;;;;;85.18;46.40;;;;;;;7.70;100.00;98632.66;5022068;28;20029;-64
2022/12/24 17:06:39;;;;;;;92.47;49.53;;;;;;;7.74;100.00;98652.19;5001967;28;20026;-63
2022/12/24 17:09:06;;;;;;;85.35;45.83;;;;;;;7.72;100.00;98656.69;5024249;28;20030;-63
2022/12/24 17:11:32;;;;;;;89.18;47.88;;;;;;;7.42;100.00;98624.56;5025262;28;20561;-62
2022/12/24 17:13:57;;;;;;;94.28;48.97;;;;;;;7.59;100.00;98661.19;5047249;28;20132;-64
2022/12/24 17:16:23;;;;;;;87.38;46.55;;;;;;;7.74;100.00;98693.59;5006998;28;20049;-63
2022/12/24 17:18:50;;;;;;;90.43;47.25;;;;;;;7.79;100.00;98694.03;5016639;28;20030;-61
2022/12/24 17:21:16;;;;;;;93.68;47.88;;;;;;;7.82;100.00;98688.63;5005677;28;20032;-65
2022/12/24 17:23:42;;;;;;;100.78;48.85;;;;;;;7.81;100.00;98687.00;5006290;28;20389;-63
2022/12/24 17:26:09;;;;;;;98.63;48.33;;;;;;;7.78;100.00;98676.88;5049246;28;20053;-64
2022/12/24 17:28:34;;;;;;;88.40;47.75;;;;;;;7.77;100.00;98685.56;5019547;28;20026;-62
2022/12/24 17:31:15;;;;;;;90.45;48.78;;;;;;;7.53;100.00;98661.69;5022068;28;20034;-64
2022/12/24 17:33:41;;;;;;;88.25;49.50;;;;;;;7.74;100.00;98693.59;5035432;28;20029;-63
2022/12/24 17:36:07;;;;;;;88.60;47.85;;;;;;;7.68;100.00;98689.75;5010015;28;20179;-62
2022/12/24 17:38:32;;;;;;;83.90;46.33;;;;;;;7.49;100.00;98668.88;5042253;28;20573;-63
2022/12/24 17:41:01;;;;;;;87.20;46.47;;;;;;;7.75;100.00;98699.59;5034954;28;20069;-62
2022/12/24 17:43:26;;;;;;;88.15;46.22;;;;;;;7.74;100.00;98698.78;5018825;28;20113;-64
2022/12/24 17:45:51;;;;;;;91.90;46.88;;;;;;;7.75;100.00;98697.00;4987181;28;20037;-63
2022/12/24 17:48:17;;;;;;;87.15;46.55;;;;;;;7.73;100.00;98697.13;5019653;28;20089;-65
2022/12/24 17:50:42;;;;;;;86.95;45.97;;;;;;;7.70;100.00;98695.63;5024220;28;20045;-63
2022/12/24 17:53:08;;;;;;;85.63;44.67;;;;;;;7.70;100.00;98711.16;5018513;28;20036;-63
2022/12/24 17:55:33;;;;;;;88.90;46.00;;;;;;;7.68;100.00;98717.38;5023394;28;20364;-63
2022/12/24 17:57:58;;;;;;;94.28;47.35;;;;;;;7.65;100.00;98715.06;4983253;28;20033;-63
2022/12/24 18:00:24;;;;;;;89.40;45.63;;;;;;;7.66;100.00;98709.72;5026492;28;20036;-62
2022/12/24 18:02:49;;;;;;;91.65;47.92;;;;;;;7.48;100.00;98686.19;4999577;28;20396;-62
2022/12/24 18:05:15;;;;;;;86.75;46.50;;;;;;;7.65;100.00;98720.25;5041511;28;20029;-62
2022/12/24 18:07:40;;;;;;;89.95;48.35;;;;;;;7.65;100.00;98725.41;5028967;28;20123;-62
2022/12/24 18:10:06;;;;;;;90.65;46.13;;;;;;;7.64;100.00;98731.53;5005581;28;20032;-63
2022/12/24 18:12:32;;;;;;;94.40;45.97;;;;;;;7.63;100.00;98732.44;5013584;28;20040;-63
2022/12/24 18:14:57;;;;;;;92.78;45.10;;;;;;;7.63;100.00;98738.47;5044301;28;20097;-64
2022/12/24 18:17:22;;;;;;;88.63;45.75;;;;;;;7.65;100.00;98740.94;5004222;28;20111;-64
2022/12/24 18:19:48;;;;;;;95.65;47.33;;;;;;;7.67;100.00;98746.81;5040639;28;20041;-62
2022/12/24 18:22:13;;;;;;;93.55;47.42;;;;;;;7.63;100.00;98746.25;5012342;28;20036;-62
2022/12/24 18:24:39;;;;;;;90.30;45.05;;;;;;;7.30;100.00;98690.22;5009659;28;20076;-62
2022/12/24 18:27:04;;;;;;;95.18;46.22;;;;;;;7.66;100.00;98743.38;5007019;28;20048;-63
2022/12/24 18:29:30;;;;;;;96.40;47.28;;;;;;;7.64;100.00;98754.81;5021596;28;20036;-63
2022/12/24 18:31:55;;;;;;;91.43;46.95;;;;;;;7.41;100.00;98702.28;5016855;28;20431;-64
2022/12/24 18:34:21;;;;;;;101.10;48.20;;;;;;;7.39;100.00;98705.03;5019344;28;20412;-63
2022/12/24 18:36:46;;;;;;;91.15;47.30;;;;;;;7.62;100.00;98748.94;5002280;28;20045;-62
2022/12/24 18:39:12;;;;;;;93.90;48.30;;;;;;;7.45;100.00;98737.34;5041068;28;20041;-62
2022/12/24 18:41:37;;;;;;;94.60;46.95;;;;;;;7.45;100.00;98740.75;4993241;28;20050;-63
2022/12/24 18:44:03;;;;;;;93.20;47.55;;;;;;;7.53;100.00;98750.50;5045834;28;20767;-62
2022/12/24 18:46:30;;;;;;;91.28;44.60;;;;;;;7.62;100.00;98760.09;5023589;28;20041;-63
2022/12/24 18:48:58;;;;;;;87.70;46.38;;;;;;;7.42;100.00;98724.66;5008280;28;20063;-63
2022/12/24 18:51:27;;;;;;;86.30;45.45;;;;;;;7.58;100.00;98747.56;4992237;28;21247;-64
2022/12/24 18:53:52;;;;;;;90.28;46.45;;;;;;;7.62;100.00;98762.69;5007436;28;20120;-66
2022/12/24 18:56:20;;;;;;;93.22;46.75;;;;;;;7.59;100.00;98764.69;5012178;28;20472;-65
2022/12/24 18:58:45;;;;;;;95.82;45.20;;;;;;;7.14;100.00;98698.38;4989339;28;20112;-63
2022/12/24 19:01:16;;;;;;;103.13;46.58;;;;;;;7.53;100.00;98767.78;4997468;28;20056;-62
2022/12/24 19:03:42;;;;;;;92.88;45.50;;;;;;;7.55;100.00;98763.31;5009067;28;20029;-62
2022/12/24 19:06:08;;;;;;;88.93;45.13;;;;;;;7.64;100.00;98772.94;5016896;28;20040;-62
2022/12/24 19:08:34;;;;;;;91.43;46.60;;;;;;;7.61;100.00;98775.75;5025068;28;20464;-62
2022/12/24 19:11:00;;;;;;;97.65;46.55;;;;;;;7.57;100.00;98764.81;5003216;28;20052;-62
2022/12/24 19:13:26;;;;;;;91.57;44.90;;;;;;;7.59;100.00;98756.94;5003358;28;20630;-62
2022/12/24 19:15:51;;;;;;;91.57;47.50;;;;;;;7.53;100.00;98765.19;4993388;28;20042;-65
2022/12/24 19:18:17;;;;;;;90.25;45.35;;;;;;;7.56;100.00;98775.31;5021035;28;20033;-63
2022/12/24 19:20:42;;;;;;;96.97;47.25;;;;;;;7.54;100.00;98772.84;5021980;28;20040;-63
2022/12/24 19:23:08;;;;;;;95.28;46.33;;;;;;;7.63;100.00;98776.44;5022321;28;20451;-63
2022/12/24 19:25:34;;;;;;;82.68;45.00;;;;;;;7.67;100.00;98772.69;4996764;28;20034;-63
2022/12/24 19:27:59;;;;;;;92.80;46.95;;;;;;;7.62;100.00;98765.28;4993417;28;20115;-63
2022/12/24 19:30:25;;;;;;;93.40;45.75;;;;;;;7.61;100.00;98775.75;5017688;28;20053;-65
2022/12/24 19:32:50;;;;;;;94.63;48.30;;;;;;;7.65;100.00;98782.34;5018394;28;20124;-63
2022/12/24 19:35:16;;;;;;;89.20;46.17;;;;;;;7.63;100.00;98779.88;5012196;28;20044;-62
2022/12/24 19:37:41;;;;;;;84.75;45.15;;;;;;;7.63;100.00;98784.22;5042682;28;20069;-63
2022/12/24 19:40:07;;;;;;;88.35;45.78;;;;;;;7.61;100.00;98791.28;5003068;28;20041;-63
2022/12/24 19:42:33;;;;;;;84.43;44.88;;;;;;;7.42;100.00;98763.47;5021162;28;20029;-64
2022/12/24 19:44:58;;;;;;;96.95;45.63;;;;;;;7.66;100.00;98792.56;5027325;28;20040;-63
2022/12/24 19:47:23;;;;;;;88.43;47.05;;;;;;;7.62;100.00;98791.16;4996241;28;20028;-63
2022/12/24 19:49:49;;;;;;;93.72;45.45;;;;;;;7.54;100.00;98798.72;5002884;28;20036;-63
2022/12/24 19:52:15;;;;;;;91.88;45.80;;;;;;;7.49;100.00;98812.00;5009922;28;20030;-63
2022/12/24 19:54:41;;;;;;;85.07;44.67;;;;;;;7.51;100.00;98811.88;5006276;28;20049;-64
2022/12/24 19:57:07;;;;;;;92.80;47.08;;;;;;;7.59;100.00;98830.22;5013866;28;20036;-64
2022/12/24 19:59:33;;;;;;;95.30;46.42;;;;;;;7.58;100.00;98830.34;5022041;28;20037;-64
2022/12/24 20:01:58;;;;;;;89.65;47.55;;;;;;;7.64;100.00;98842.81;4992020;28;20096;-62
2022/12/24 20:04:24;;;;;;;92.32;45.78;;;;;;;7.61;100.00;98845.63;4989530;28;20064;-62
2022/12/24 20:06:49;;;;;;;90.72;45.90;;;;;;;7.62;100.00;98835.16;5017447;28;20056;-65
2022/12/24 20:09:14;;;;;;;87.63;45.95;;;;;;;7.59;100.00;98840.56;5008731;28;20028;-63
2022/12/24 20:11:40;;;;;;;82.32;44.90;;;;;;;7.66;100.00;98854.66;4998262;28;20048;-63
2022/12/24 20:14:05;;;;;;;92.50;47.03;;;;;;;7.62;100.00;98850.69;5024734;28;20036;-61
2022/12/24 20:16:32;;;;;;;94.72;48.05;;;;;;;7.61;100.00;98835.28;5024495;28;20037;-66
2022/12/24 20:18:59;;;;;;;99.90;47.80;;;;;;;7.68;100.00;98839.88;4999495;28;20056;-65
2022/12/24 20:21:25;;;;;;;88.57;45.78;;;;;;;7.63;100.00;98835.97;5000337;28;20037;-65
2022/12/24 20:23:51;;;;;;;94.65;45.85;;;;;;;7.67;100.00;98848.56;5000741;28;20029;-62
2022/12/24 20:26:19;;;;;;;92.30;46.05;;;;;;;7.67;100.00;98845.16;5014138;28;20310;-63
2022/12/24 20:28:45;;;;;;;93.95;44.67;;;;;;;7.68;100.00;98845.03;5016813;28;20115;-62
2022/12/24 20:31:13;;;;;;;80.07;43.00;;;;;;;7.73;100.00;98851.63;5038160;28;20054;-64
2022/12/24 20:33:40;;;;;;;88.80;44.67;;;;;;;7.54;100.00;98810.81;4997773;28;20038;-62
2022/12/24 20:36:06;;;;;;;88.13;45.10;;;;;;;7.71;100.00;98849.16;4991292;28;20052;-64
2022/12/24 20:38:31;;;;;;;94.43;45.05;;;;;;;7.70;100.00;98852.66;5018826;28;20040;-64
2022/12/24 20:40:57;;;;;;;94.75;44.63;;;;;;;7.70;100.00;98860.44;5037210;28;20831;-64
2022/12/24 20:43:23;;;;;;;83.40;44.30;;;;;;;7.69;100.00;98853.63;5019709;28;20108;-64
2022/12/24 20:45:54;;;;;;;91.38;44.95;;;;;;;7.72;100.00;98844.78;4998616;28;20033;-64
2022/12/24 20:48:19;;;;;;;90.93;44.80;;;;;;;7.72;100.00;98845.63;5021494;28;20115;-62
2022/12/24 20:50:45;;;;;;;90.18;44.72;;;;;;;7.65;100.00;98836.69;5019360;28;20787;-62
2022/12/24 20:53:11;;;;;;;93.43;46.83;;;;;;;7.70;100.00;98857.84;5006139;28;20124;-62
2022/12/24 20:55:36;;;;;;;86.78;46.90;;;;;;;7.63;100.00;98852.34;5011083;28;20025;-62
2022/12/24 20:58:02;;;;;;;93.28;46.30;;;;;;;7.65;100.00;98857.41;5008473;28;20030;-64
2022/12/24 21:00:27;;;;;;;90.60;46.30;;;;;;;7.66;100.00;98851.28;5014456;28;20363;-64
2022/12/24 21:02:53;;;;;;;85.80;45.35;;;;;;;7.65;100.00;98857.41;5001423;28;20080;-64
2022/12/24 21:05:18;;;;;;;96.40;46.30;;;;;;;7.70;100.00;98857.84;4993612;28;20465;-64
2022/12/24 21:07:45;;;;;;;87.80;45.60;;;;;;;7.63;100.00;98851.50;5033474;28;20026;-64
2022/12/24 21:10:12;;;;;;;94.78;44.75;;;;;;;7.70;100.00;98869.03;4974889;28;20760;-66
2022/12/24 21:12:47;;;;;;;95.45;47.30;;;;;;;7.61;100.00;98871.50;5004608;28;20115;-65
2022/12/24 21:15:16;;;;;;;91.75;45.78;;;;;;;7.54;100.00;98865.16;5001798;28;20037;-69
2022/12/24 21:17:41;;;;;;;89.55;45.20;;;;;;;7.57;100.00;98870.91;5015275;28;20033;-62
2022/12/24 21:20:07;;;;;;;99.35;47.20;;;;;;;7.62;100.00;98873.16;4997849;28;20489;-63
2022/12/24 21:22:33;;;;;;;90.25;45.65;;;;;;;7.60;100.00;98878.44;5019815;28;20545;-64
2022/12/24 21:24:58;;;;;;;91.90;46.42;;;;;;;7.64;100.00;98885.03;5027734;28;20321;-63
2022/12/24 21:27:24;;;;;;;88.10;45.78;;;;;;;7.66;100.00;98880.56;5008115;28;20061;-64
2022/12/24 21:29:49;;;;;;;88.72;45.72;;;;;;;7.47;100.00;98844.13;5008743;28;20040;-64
2022/12/24 21:32:14;;;;;;;92.85;46.92;;;;;;;7.76;100.00;98890.19;5012331;28;20033;-63
2022/12/24 21:34:40;;;;;;;97.93;47.15;;;;;;;7.72;100.00;98891.38;4992045;28;20489;-64
2022/12/24 21:37:05;;;;;;;91.93;47.63;;;;;;;7.69;100.00;98882.09;5006578;28;20044;-63
2022/12/24 21:39:31;;;;;;;90.95;46.63;;;;;;;7.56;100.00;98878.81;5029286;28;20685;-63
2022/12/24 21:41:56;;;;;;;87.00;46.03;;;;;;;7.56;100.00;98876.25;5003965;28;20040;-64
2022/12/24 21:44:21;;;;;;;93.10;46.05;;;;;;;7.53;100.00;98863.53;5028677;28;20033;-63
2022/12/24 21:46:47;;;;;;;91.13;46.53;;;;;;;7.55;100.00;98874.56;4994244;28;20037;-64
2022/12/24 21:52:13;;;;;;;86.68;45.75;;;;;;;7.46;100.00;98855.41;4966188;28;20078;-64
2022/12/24 21:54:39;;;;;;;90.32;45.58;;;;;;;7.30;100.00;98842.81;4981185;28;20167;-63
2022/12/24 21:59:51;;;;;;;87.05;44.20;;;;;;;7.51;100.00;98892.09;5015178;28;20094;-64
2022/12/24 22:02:18;;;;;;;94.63;46.05;;;;;;;7.30;100.00;98859.19;4992001;28;20041;-63
2022/12/24 22:04:44;;;;;;;85.45;45.25;;;;;;;7.51;100.00;98877.38;5026538;28;20079;-64
2022/12/24 22:12:52;;;;;;;94.13;43.17;;;;;;;7.54;100.00;98896.22;5042136;28;20047;-65
2022/12/24 22:15:18;;;;;;;88.63;45.20;;;;;;;7.48;100.00;98900.09;5028985;28;20032;-63
2022/12/24 22:17:43;;;;;;;93.75;45.08;;;;;;;7.27;100.00;98861.19;5021454;28;20034;-63
2022/12/24 22:20:09;;;;;;;92.00;45.85;;;;;;;7.49;100.00;98899.97;5043275;28;20588;-65
2022/12/24 22:22:34;;;;;;;90.97;44.58;;;;;;;7.50;100.00;98904.22;5028846;28;20372;-62
2022/12/24 22:25:00;;;;;;;90.88;44.97;;;;;;;7.50;100.00;98898.22;5028775;28;20056;-63
2022/12/24 22:27:25;;;;;;;85.90;44.78;;;;;;;7.51;100.00;98900.69;5004049;28;20033;-64
2022/12/24 22:29:52;;;;;;;91.75;46.63;;;;;;;7.49;100.00;98915.50;5045306;28;20033;-62
2022/12/24 22:32:17;;;;;;;83.45;43.35;;;;;;;7.48;100.00;98913.03;5022432;28;20040;-62
2022/12/24 22:34:43;;;;;;;92.22;44.83;;;;;;;7.30;100.00;98907.50;4989969;28;20026;-64
2022/12/24 22:37:09;;;;;;;89.22;45.67;;;;;;;7.28;100.00;98920.56;5003595;28;20049;-64
2022/12/24 22:39:34;;;;;;;91.15;44.78;;;;;;;7.34;100.00;98923.59;5018697;28;20025;-62
2022/12/24 22:42:00;;;;;;;93.88;43.88;;;;;;;7.38;100.00;98915.50;5023865;28;20025;-64
2022/12/24 22:44:25;;;;;;;91.85;43.20;;;;;;;7.38;100.00;98930.22;5025639;28;20451;-65
2022/12/24 22:46:51;;;;;;;91.45;43.60;;;;;;;7.24;100.00;98908.78;5025612;28;20116;-64
2022/12/24 22:49:16;;;;;;;87.22;43.95;;;;;;;7.31;100.00;98925.47;5039140;28;20102;-64
2022/12/24 22:51:42;;;;;;;88.72;45.47;;;;;;;7.35;100.00;98915.72;5012512;28;20728;-65
2022/12/24 22:54:07;;;;;;;87.10;44.92;;;;;;;7.35;100.00;98920.91;5016910;28;20122;-65
2022/12/24 22:56:32;;;;;;;87.03;43.92;;;;;;;7.42;100.00;98927.25;5041476;28;20041;-64
2022/12/24 22:58:58;;;;;;;87.13;42.38;;;;;;;7.41;100.00;98924.78;5010149;28;20546;-64
2022/12/24 23:01:51;;;;;;;89.90;43.42;;;;;;;7.41;100.00;98923.03;5010762;28;20437;-63
2022/12/24 23:04:17;;;;;;;84.57;42.13;;;;;;;7.43;100.00;98921.16;4997161;28;20044;-63
2022/12/24 23:06:43;;;;;;;82.43;41.20;;;;;;;7.30;100.00;98916.09;5009921;28;20041;-64
2022/12/24 23:09:10;;;;;;;84.93;44.30;;;;;;;7.42;100.00;98931.63;5001511;28;20061;-64
2022/12/24 23:11:36;;;;;;;84.32;42.83;;;;;;;7.41;100.00;98930.81;5021253;28;20048;-64
2022/12/24 23:16:45;;;;;;;85.30;42.50;;;;;;;7.39;100.00;98940.44;4999977;28;20132;-64
2022/12/24 23:19:11;;;;;;;83.22;42.53;;;;;;;7.36;100.00;98940.69;5004744;28;20119;-62
2022/12/24 23:21:37;;;;;;;88.47;43.22;;;;;;;7.29;100.00;98942.06;5021350;28;20415;-64
2022/12/24 23:24:03;;;;;;;90.22;43.58;;;;;;;7.25;100.00;98945.84;5002618;28;20021;-64
2022/12/24 23:26:28;;;;;;;82.50;42.55;;;;;;;7.27;100.00;98931.03;5019144;28;20085;-64
2022/12/24 23:28:54;;;;;;;87.85;44.28;;;;;;;7.36;100.00;98924.34;4987992;28;20060;-66
2022/12/24 23:31:21;;;;;;;85.65;42.42;;;;;;;7.31;100.00;98919.50;4999602;28;20026;-65
2022/12/24 23:33:47;;;;;;;84.70;43.88;;;;;;;7.39;100.00;98934.44;5031336;28;20025;-64
2022/12/24 23:36:13;;;;;;;88.07;43.15;;;;;;;7.28;100.00;98925.75;5005604;28;20199;-64
2022/12/24 23:38:38;;;;;;;87.55;44.08;;;;;;;7.07;100.00;98891.97;5005814;28;20026;-63
2022/12/24 23:41:05;;;;;;;83.75;42.33;;;;;;;7.28;100.00;98925.75;5025436;28;20030;-63
2022/12/24 23:43:31;;;;;;;82.38;42.70;;;;;;;7.29;100.00;98927.38;4994672;28;20124;-65
2022/12/24 23:45:57;;;;;;;88.35;43.38;;;;;;;7.27;100.00;98923.25;5020129;28;20101;-65
2022/12/24 23:48:23;;;;;;;85.07;43.15;;;;;;;7.28;100.00;98928.31;5005781;28;20029;-64
2022/12/24 23:50:49;;;;;;;83.18;41.60;;;;;;;7.04;100.00;98893.94;5008759;28;20510;-64
2022/12/24 23:53:15;;;;;;;81.72;41.67;;;;;;;7.14;100.00;98941.47;5008189;28;20076;-63
2022/12/24 23:55:41;;;;;;;79.38;39.90;;;;;;;7.01;100.00;98909.69;4993611;28;20219;-64
2022/12/24 23:58:07;;;;;;;81.75;42.25;;;;;;;7.12;100.00;98940.75;4987640;28;20156;-64
